createdAt,value
2016-08-03T00:00:25.451Z,55.70
2016-08-03T00:01:18.236Z,55.70
2016-08-03T00:02:17.559Z,55.70
2016-08-03T00:03:19.197Z,55.70
2016-08-03T00:04:19.199Z,55.70
2016-08-03T00:05:19.584Z,55.70
2016-08-03T00:06:15.855Z,is
2016-08-03T00:07:15.227Z,55.70
2016-08-03T00:08:23.228Z,55.70
2016-08-03T00:09:32.088Z,55.70
2016-08-03T00:10:18.116Z,55.70
2016-08-03T00:11:13.529Z,55.70
2016-08-03T00:12:14.608Z,55.70
2016-08-03T00:13:20.234Z,55.70
2016-08-03T00:14:19.374Z,55.80
2016-08-03T00:15:28.449Z,55.70
2016-08-03T00:16:23.762Z,55.80
2016-08-03T00:17:21.649Z,55.70
2016-08-03T00:18:23.602Z,55.70
2016-08-03T00:19:30.856Z,55.70
2016-08-03T00:20:14.913Z,55.80
2016-08-03T00:21:30.676Z,55.70
2016-08-03T00:22:27.927Z,55.70
2016-08-03T00:23:17.700Z,55.70
2016-08-03T00:24:17.392Z,55.80
2016-08-03T00:25:13.142Z,55.70
2016-08-03T00:26:25.211Z,55.70
2016-08-03T00:27:31.096Z,55.80
2016-08-03T00:28:21.753Z,55.80
2016-08-03T00:29:13.269Z,55.90
2016-08-03T00:30:30.558Z,55.70
2016-08-03T00:31:11.918Z,55.80
2016-08-03T00:32:11.719Z,is
2016-08-03T00:33:27.532Z,55.90
2016-08-03T00:34:29.398Z,55.80
2016-08-03T00:35:14.972Z,55.70
2016-08-03T00:36:14.895Z,55.90
2016-08-03T00:37:24.922Z,55.80
2016-08-03T00:38:34.461Z,55.70
2016-08-03T00:39:14.440Z,55.80
2016-08-03T00:40:14.028Z,55.80
2016-08-03T00:41:25.866Z,55.70
2016-08-03T00:42:26.994Z,55.80
2016-08-03T00:43:21.107Z,is
2016-08-03T00:44:23.250Z,55.80
2016-08-03T00:45:16.218Z,is
2016-08-03T00:46:22.781Z,55.80
2016-08-03T00:47:17.084Z,55.90
2016-08-03T00:48:27.336Z,55.90
2016-08-03T00:49:13.686Z,is
2016-08-03T00:50:20.050Z,55.90
2016-08-03T00:51:32.710Z,55.90
2016-08-03T00:52:26.527Z,55.90
2016-08-03T00:53:21.315Z,55.90
2016-08-03T00:54:28.011Z,55.90
2016-08-03T00:55:12.518Z,55.90
2016-08-03T00:56:22.661Z,55.90
2016-08-03T00:57:13.112Z,55.90
2016-08-03T00:58:23.737Z,55.90
2016-08-03T00:59:14.536Z,is
2016-08-03T01:00:21.221Z,56.00
2016-08-03T01:01:26.406Z,56.00
2016-08-03T01:02:25.186Z,56.00
2016-08-03T01:03:22.160Z,56.10
2016-08-03T01:04:21.277Z,56.00
2016-08-03T01:05:20.297Z,56.00
2016-08-03T01:06:26.253Z,56.10
2016-08-03T01:07:15.404Z,56.00
2016-08-03T01:08:17.782Z,56.10
2016-08-03T01:09:23.229Z,56.00
2016-08-03T01:10:28.375Z,56.00
2016-08-03T01:11:21.818Z,56.10
2016-08-03T01:12:22.288Z,56.10
2016-08-03T01:13:26.969Z,56.10
2016-08-03T01:14:32.105Z,55.90
2016-08-03T01:15:26.747Z,56.10
2016-08-03T01:16:13.896Z,56.00
2016-08-03T01:17:28.569Z,56.00
2016-08-03T01:18:22.894Z,56.00
2016-08-03T01:19:34.139Z,56.10
2016-08-03T01:20:28.916Z,56.20
2016-08-03T01:21:26.011Z,56.10
2016-08-03T01:22:23.519Z,56.00
2016-08-03T01:23:18.651Z,56.00
2016-08-03T01:24:10.567Z,is
2016-08-03T01:25:20.291Z,56.20
2016-08-03T01:26:21.143Z,is
2016-08-03T01:27:10.830Z,is
2016-08-03T01:28:27.584Z,56.10
2016-08-03T01:29:27.882Z,56.20
2016-08-03T01:30:25.175Z,56.00
2016-08-03T01:31:18.188Z,56.20
2016-08-03T01:32:20.971Z,56.10
2016-08-03T01:33:26.942Z,56.20
2016-08-03T01:34:15.866Z,56.10
2016-08-03T01:35:19.154Z,56.10
2016-08-03T01:36:23.399Z,56.10
2016-08-03T01:37:27.400Z,56.10
2016-08-03T01:38:24.925Z,56.10
2016-08-03T01:39:10.771Z,is
2016-08-03T01:40:14.182Z,56.20
2016-08-03T01:41:17.536Z,56.10
2016-08-03T01:42:26.132Z,56.00
2016-08-03T01:43:11.928Z,56.10
2016-08-03T01:44:15.134Z,56.00
2016-08-03T01:45:13.430Z,56.10
2016-08-03T01:46:24.537Z,56.00
2016-08-03T01:47:16.879Z,56.20
2016-08-03T01:48:17.708Z,56.00
2016-08-03T01:49:22.111Z,56.00
2016-08-03T01:50:14.688Z,56.00
2016-08-03T01:51:14.429Z,56.20
2016-08-03T01:52:33.338Z,56.20
2016-08-03T01:53:24.095Z,56.20
2016-08-03T01:54:11.048Z,is
2016-08-03T01:55:31.232Z,56.10
2016-08-03T01:56:12.116Z,56.10
2016-08-03T01:57:20.700Z,56.20
2016-08-03T01:58:27.117Z,56.10
2016-08-03T01:59:28.861Z,56.10
2016-08-03T02:00:22.094Z,56.20
2016-08-03T02:01:27.906Z,56.10
2016-08-03T02:02:15.558Z,56.20
2016-08-03T02:03:19.439Z,56.10
2016-08-03T02:04:22.588Z,56.20
2016-08-03T02:05:25.569Z,56.20
2016-08-03T02:06:20.760Z,56.20
2016-08-03T02:07:16.556Z,56.20
2016-08-03T02:08:13.930Z,56.20
2016-08-03T02:09:26.238Z,56.10
2016-08-03T02:10:22.979Z,56.10
2016-08-03T02:11:13.204Z,56.00
2016-08-03T02:12:31.048Z,56.20
2016-08-03T02:13:28.280Z,56.30
2016-08-03T02:15:16.081Z,56.20
2016-08-03T02:16:16.209Z,56.20
2016-08-03T02:17:28.266Z,56.20
2016-08-03T02:18:17.876Z,56.20
2016-08-03T02:19:13.124Z,56.10
2016-08-03T02:20:14.462Z,56.10
2016-08-03T02:21:15.857Z,56.10
2016-08-03T02:22:27.913Z,56.20
2016-08-03T02:23:16.390Z,56.10
2016-08-03T02:24:12.599Z,56.20
2016-08-03T02:25:14.672Z,56.10
2016-08-03T02:26:26.075Z,56.20
2016-08-03T02:27:30.604Z,is
2016-08-03T02:28:30.686Z,56.20
2016-08-03T02:29:26.605Z,56.10
2016-08-03T02:30:27.669Z,56.10
2016-08-03T02:31:29.394Z,56.20
2016-08-03T02:32:30.234Z,56.20
2016-08-03T02:33:16.033Z,56.20
2016-08-03T02:34:18.355Z,56.20
2016-08-03T02:35:14.607Z,56.20
2016-08-03T02:36:13.108Z,56.20
2016-08-03T02:37:26.531Z,56.20
2016-08-03T02:38:20.618Z,56.30
2016-08-03T02:39:26.408Z,56.20
2016-08-03T02:40:14.580Z,56.20
2016-08-03T02:41:27.759Z,56.20
2016-08-03T02:42:16.978Z,56.30
2016-08-03T02:43:13.269Z,55.70
2016-08-03T02:45:28.418Z,56.30
2016-08-03T02:46:29.355Z,56.30
2016-08-03T02:47:22.450Z,56.30
2016-08-03T02:48:25.547Z,56.40
2016-08-03T02:49:23.693Z,56.40
2016-08-03T02:50:12.152Z,56.30
2016-08-03T02:51:26.566Z,56.40
2016-08-03T02:52:26.212Z,56.30
2016-08-03T02:53:25.416Z,56.30
2016-08-03T02:54:29.327Z,56.40
2016-08-03T02:55:15.940Z,56.30
2016-08-03T02:56:22.495Z,56.30
2016-08-03T02:57:33.047Z,56.30
2016-08-03T02:58:28.741Z,56.30
2016-08-03T02:59:27.038Z,56.70
2016-08-03T03:00:24.054Z,56.30
2016-08-03T03:01:11.266Z,is
2016-08-03T03:02:26.669Z,56.30
2016-08-03T03:03:11.772Z,is
2016-08-03T03:04:27.996Z,56.30
2016-08-03T03:05:26.759Z,56.30
2016-08-03T03:06:11.475Z,is
2016-08-03T03:07:28.018Z,56.30
2016-08-03T03:08:22.279Z,56.40
2016-08-03T03:09:16.860Z,is
2016-08-03T03:10:11.863Z,is
2016-08-03T03:11:21.383Z,56.30
2016-08-03T03:12:20.706Z,56.20
2016-08-03T03:13:27.358Z,56.30
2016-08-03T03:15:26.419Z,56.30
2016-08-03T03:16:28.612Z,56.30
2016-08-03T03:17:27.835Z,56.30
2016-08-03T03:18:31.104Z,56.30
2016-08-03T03:19:28.055Z,56.40
2016-08-03T03:20:35.480Z,56.30
2016-08-03T03:21:11.315Z,is
2016-08-03T03:22:32.437Z,56.30
2016-08-03T03:23:29.381Z,56.30
2016-08-03T03:24:29.155Z,56.30
2016-08-03T03:25:18.296Z,56.40
2016-08-03T03:26:36.075Z,56.30
2016-08-03T03:27:27.480Z,56.30
2016-08-03T03:28:22.611Z,56.40
2016-08-03T03:29:29.229Z,56.40
2016-08-03T03:30:22.725Z,56.40
2016-08-03T03:31:28.760Z,56.30
2016-08-03T03:32:26.485Z,56.40
2016-08-03T03:33:18.487Z,56.40
2016-08-03T03:34:26.018Z,56.40
2016-08-03T03:35:25.455Z,56.50
2016-08-03T03:36:26.292Z,56.40
2016-08-03T03:37:28.083Z,56.30
2016-08-03T03:38:30.264Z,56.50
2016-08-03T03:39:22.385Z,56.40
2016-08-03T03:40:19.801Z,56.40
2016-08-03T03:41:12.567Z,56.40
2016-08-03T03:42:22.304Z,56.50
2016-08-03T03:43:31.724Z,56.50
2016-08-03T03:45:32.045Z,56.30
2016-08-03T03:46:26.767Z,56.40
2016-08-03T03:47:27.388Z,is
2016-08-03T03:48:16.644Z,56.40
2016-08-03T03:49:25.433Z,56.40
2016-08-03T03:50:25.152Z,56.40
2016-08-03T03:51:13.403Z,56.50
2016-08-03T03:52:27.125Z,56.50
2016-08-03T03:53:30.995Z,56.40
2016-08-03T03:54:25.178Z,56.50
2016-08-03T03:55:27.015Z,56.50
2016-08-03T03:56:12.820Z,56.40
2016-08-03T03:57:20.911Z,56.40
2016-08-03T03:58:27.604Z,56.40
2016-08-03T03:59:12.611Z,56.50
2016-08-03T04:00:26.360Z,56.50
2016-08-03T04:01:22.226Z,56.50
2016-08-03T04:02:21.739Z,56.50
2016-08-03T04:03:27.274Z,56.50
2016-08-03T04:04:22.586Z,56.50
2016-08-03T04:05:27.456Z,56.40
2016-08-03T04:06:19.435Z,56.40
2016-08-03T04:07:24.459Z,56.50
2016-08-03T04:08:18.719Z,is
2016-08-03T04:09:29.858Z,56.50
2016-08-03T04:10:25.110Z,56.50
2016-08-03T04:11:18.209Z,56.50
2016-08-03T04:12:28.043Z,56.50
2016-08-03T04:13:26.118Z,56.40
2016-08-03T04:14:22.793Z,56.40
2016-08-03T04:15:22.053Z,56.40
2016-08-03T04:16:21.119Z,56.50
2016-08-03T04:17:27.377Z,56.50
2016-08-03T04:18:22.418Z,56.50
2016-08-03T04:19:14.174Z,56.40
2016-08-03T04:20:29.557Z,56.50
2016-08-03T04:21:21.132Z,56.40
2016-08-03T04:22:22.873Z,56.40
2016-08-03T04:23:22.419Z,56.50
2016-08-03T04:24:16.807Z,56.50
2016-08-03T04:25:15.780Z,56.50
2016-08-03T04:26:23.017Z,56.50
2016-08-03T04:27:21.734Z,56.40
2016-08-03T04:28:14.560Z,56.40
2016-08-03T04:29:25.594Z,56.40
2016-08-03T04:30:27.456Z,is
2016-08-03T04:31:22.372Z,is
2016-08-03T04:32:24.763Z,56.50
2016-08-03T04:33:16.459Z,56.40
2016-08-03T04:34:27.931Z,56.40
2016-08-03T04:35:15.440Z,56.40
2016-08-03T04:36:28.360Z,56.50
2016-08-03T04:37:23.396Z,56.50
2016-08-03T04:38:15.737Z,56.40
2016-08-03T04:39:26.445Z,56.40
2016-08-03T04:40:26.931Z,56.50
2016-08-03T04:41:15.364Z,56.30
2016-08-03T04:42:15.379Z,56.30
2016-08-03T04:43:21.877Z,56.30
2016-08-03T04:45:16.288Z,56.30
2016-08-03T04:46:26.925Z,56.50
2016-08-03T04:47:28.076Z,56.30
2016-08-03T04:48:28.412Z,56.40
2016-08-03T04:49:23.021Z,56.40
2016-08-03T04:50:15.887Z,is
2016-08-03T04:51:17.735Z,56.40
2016-08-03T04:52:26.614Z,56.30
2016-08-03T04:53:26.699Z,56.40
2016-08-03T04:54:21.075Z,56.40
2016-08-03T04:55:21.419Z,56.40
2016-08-03T04:56:22.282Z,56.40
2016-08-03T04:57:13.811Z,56.40
2016-08-03T04:58:16.297Z,56.40
2016-08-03T04:59:15.971Z,56.40
2016-08-03T05:00:10.962Z,is
2016-08-03T05:01:26.800Z,56.40
2016-08-03T05:02:26.198Z,56.40
2016-08-03T05:03:24.375Z,56.40
2016-08-03T05:04:16.442Z,56.40
2016-08-03T05:05:31.716Z,56.40
2016-08-03T05:06:28.440Z,56.40
2016-08-03T05:07:25.300Z,56.40
2016-08-03T05:08:13.959Z,56.40
2016-08-03T05:09:20.789Z,56.30
2016-08-03T05:10:24.083Z,56.40
2016-08-03T05:11:21.227Z,56.50
2016-08-03T05:12:26.093Z,56.50
2016-08-03T05:13:20.643Z,56.40
2016-08-03T05:14:20.583Z,56.40
2016-08-03T05:15:22.552Z,56.40
2016-08-03T05:16:28.109Z,56.40
2016-08-03T05:17:13.806Z,56.40
2016-08-03T05:18:12.782Z,56.30
2016-08-03T05:19:14.104Z,56.40
2016-08-03T05:20:22.693Z,56.30
2016-08-03T05:21:28.988Z,56.50
2016-08-03T05:22:15.101Z,56.30
2016-08-03T05:23:13.356Z,56.40
2016-08-03T05:24:18.454Z,56.40
2016-08-03T05:25:19.952Z,56.30
2016-08-03T05:26:20.650Z,56.30
2016-08-03T05:27:27.222Z,56.30
2016-08-03T05:28:26.321Z,56.40
2016-08-03T05:29:15.034Z,56.40
2016-08-03T05:30:17.635Z,56.30
2016-08-03T05:31:16.801Z,56.30
2016-08-03T05:32:18.437Z,56.40
2016-08-03T05:33:26.757Z,56.40
2016-08-03T05:34:26.963Z,56.30
2016-08-03T05:35:14.497Z,56.30
2016-08-03T05:36:22.785Z,56.30
2016-08-03T05:37:14.448Z,56.30
2016-08-03T05:38:22.500Z,56.30
2016-08-03T05:39:18.625Z,56.30
2016-08-03T05:40:21.082Z,56.30
2016-08-03T05:41:12.447Z,56.30
2016-08-03T05:42:17.130Z,56.40
2016-08-03T05:43:15.862Z,56.30
2016-08-03T05:44:29.158Z,56.30
2016-08-03T05:45:21.657Z,55.70
2016-08-03T05:46:27.290Z,56.30
2016-08-03T05:47:15.698Z,56.30
2016-08-03T05:48:16.802Z,56.40
2016-08-03T05:49:20.487Z,56.60
2016-08-03T05:50:15.795Z,is
2016-08-03T05:51:26.312Z,56.50
2016-08-03T05:52:19.814Z,56.40
2016-08-03T05:53:28.327Z,56.40
2016-08-03T05:54:29.689Z,56.50
2016-08-03T05:55:15.621Z,56.60
2016-08-03T05:56:25.651Z,56.40
2016-08-03T05:57:26.139Z,56.50
2016-08-03T05:58:17.692Z,56.50
2016-08-03T05:59:17.085Z,56.40
2016-08-03T06:00:27.117Z,56.40
2016-08-03T06:01:30.978Z,56.40
2016-08-03T06:02:13.459Z,56.40
2016-08-03T06:03:16.997Z,56.50
2016-08-03T06:04:25.117Z,56.50
2016-08-03T06:05:27.822Z,56.50
2016-08-03T06:06:22.211Z,56.50
2016-08-03T06:07:21.400Z,56.50
2016-08-03T06:08:20.654Z,56.50
2016-08-03T06:09:23.446Z,56.60
2016-08-03T06:10:20.569Z,56.60
2016-08-03T06:11:19.407Z,56.80
2016-08-03T06:12:28.855Z,56.90
2016-08-03T06:13:12.674Z,56.90
2016-08-03T06:14:27.672Z,56.90
2016-08-03T06:16:23.690Z,57.10
2016-08-03T06:17:22.800Z,57.20
2016-08-03T06:18:15.332Z,57.00
2016-08-03T06:19:21.890Z,56.90
2016-08-03T06:20:23.666Z,56.90
2016-08-03T06:21:13.015Z,is
2016-08-03T06:22:13.281Z,57.20
2016-08-03T06:23:16.044Z,57.20
2016-08-03T06:24:23.603Z,57.20
2016-08-03T06:25:27.269Z,57.40
2016-08-03T06:26:24.180Z,57.50
2016-08-03T06:27:28.244Z,57.40
2016-08-03T06:28:26.996Z,57.50
2016-08-03T06:29:22.338Z,is
2016-08-03T06:30:28.202Z,57.50
2016-08-03T06:31:15.898Z,57.70
2016-08-03T06:32:17.695Z,57.30
2016-08-03T06:33:15.300Z,57.60
2016-08-03T06:34:17.367Z,is
2016-08-03T06:35:27.383Z,57.50
2016-08-03T06:36:26.949Z,57.70
2016-08-03T06:37:12.808Z,57.50
2016-08-03T06:38:27.449Z,57.40
2016-08-03T06:39:26.558Z,57.60
2016-08-03T06:40:23.752Z,57.70
2016-08-03T06:41:21.148Z,57.80
2016-08-03T06:42:28.011Z,58.30
2016-08-03T06:43:21.038Z,57.90
2016-08-03T06:44:25.182Z,58.60
2016-08-03T06:46:22.828Z,58.00
2016-08-03T06:47:17.468Z,58.20
2016-08-03T06:48:19.096Z,58.40
2016-08-03T06:49:16.046Z,58.50
2016-08-03T06:50:20.668Z,58.60
2016-08-03T06:51:12.480Z,58.30
2016-08-03T06:52:26.396Z,58.40
2016-08-03T06:53:28.120Z,58.50
2016-08-03T06:54:17.471Z,58.60
2016-08-03T06:55:30.558Z,58.40
2016-08-03T06:56:28.130Z,58.50
2016-08-03T06:57:27.059Z,58.50
2016-08-03T06:58:17.392Z,58.50
2016-08-03T06:59:13.481Z,is
2016-08-03T07:01:26.116Z,58.70
2016-08-03T07:02:13.290Z,58.80
2016-08-03T07:03:27.503Z,58.80
2016-08-03T07:04:28.384Z,58.70
2016-08-03T07:05:28.491Z,58.70
2016-08-03T07:06:25.607Z,58.60
2016-08-03T07:07:27.581Z,58.70
2016-08-03T07:08:13.285Z,is
2016-08-03T07:09:28.586Z,58.50
2016-08-03T07:10:19.195Z,58.60
2016-08-03T07:11:21.459Z,58.70
2016-08-03T07:12:15.010Z,58.90
2016-08-03T07:13:22.000Z,is
2016-08-03T07:14:26.123Z,58.40
2016-08-03T07:15:33.775Z,58.70
2016-08-03T07:16:27.095Z,58.50
2016-08-03T07:17:14.395Z,58.40
2016-08-03T07:18:28.346Z,58.30
2016-08-03T07:19:12.590Z,58.40
2016-08-03T07:20:21.402Z,58.40
2016-08-03T07:21:14.858Z,58.50
2016-08-03T07:22:21.700Z,58.50
2016-08-03T07:23:16.824Z,58.30
2016-08-03T07:24:31.641Z,58.40
2016-08-03T07:25:22.790Z,58.40
2016-08-03T07:26:22.724Z,58.30
2016-08-03T07:27:14.866Z,58.30
2016-08-03T07:28:28.062Z,58.30
2016-08-03T07:29:21.788Z,58.20
2016-08-03T07:30:16.770Z,58.20
2016-08-03T07:31:29.754Z,58.20
2016-08-03T07:32:13.174Z,58.20
2016-08-03T07:33:20.583Z,58.10
2016-08-03T07:34:21.617Z,58.00
2016-08-03T07:35:17.847Z,58.10
2016-08-03T07:36:14.087Z,58.00
2016-08-03T07:37:22.313Z,58.10
2016-08-03T07:38:26.829Z,58.10
2016-08-03T07:39:21.095Z,57.90
2016-08-03T07:40:28.660Z,57.90
2016-08-03T07:41:21.783Z,57.90
2016-08-03T07:42:12.122Z,57.90
2016-08-03T07:43:12.549Z,58.00
2016-08-03T07:44:14.688Z,57.90
2016-08-03T07:45:18.625Z,57.80
2016-08-03T07:46:21.589Z,57.90
2016-08-03T07:47:32.315Z,57.90
2016-08-03T07:48:19.322Z,57.80
2016-08-03T07:49:27.097Z,57.80
2016-08-03T07:50:16.173Z,57.70
2016-08-03T07:51:28.592Z,57.70
2016-08-03T07:52:30.364Z,57.70
2016-08-03T07:53:20.017Z,57.70
2016-08-03T07:54:19.720Z,57.60
2016-08-03T07:55:24.900Z,57.70
2016-08-03T07:56:21.144Z,57.60
2016-08-03T07:57:15.005Z,57.60
2016-08-03T07:58:16.122Z,57.60
2016-08-03T07:59:16.907Z,is
2016-08-03T08:00:15.331Z,57.40
2016-08-03T08:01:13.778Z,57.50
2016-08-03T08:02:20.281Z,57.50
2016-08-03T08:03:13.463Z,is
2016-08-03T08:04:25.230Z,57.40
2016-08-03T08:05:23.174Z,57.40
2016-08-03T08:06:26.301Z,57.30
2016-08-03T08:07:26.740Z,57.30
2016-08-03T08:08:12.675Z,57.40
2016-08-03T08:09:16.444Z,57.30
2016-08-03T08:10:27.232Z,57.30
2016-08-03T08:11:18.203Z,57.30
2016-08-03T08:12:12.562Z,57.20
2016-08-03T08:13:25.849Z,57.40
2016-08-03T08:14:19.622Z,57.20
2016-08-03T08:15:11.837Z,is
2016-08-03T08:16:15.033Z,57.10
2016-08-03T08:17:26.223Z,57.10
2016-08-03T08:18:12.731Z,57.20
2016-08-03T08:19:26.645Z,57.00
2016-08-03T08:20:12.646Z,57.00
2016-08-03T08:21:27.929Z,57.10
2016-08-03T08:22:34.637Z,57.00
2016-08-03T08:23:23.129Z,56.90
2016-08-03T08:24:27.841Z,56.90
2016-08-03T08:25:16.480Z,57.00
2016-08-03T08:26:19.893Z,is
2016-08-03T08:27:28.683Z,56.90
2016-08-03T08:28:25.080Z,56.90
2016-08-03T08:29:20.659Z,56.90
2016-08-03T08:30:19.068Z,56.80
2016-08-03T08:31:21.697Z,56.90
2016-08-03T08:32:28.020Z,56.80
2016-08-03T08:33:28.810Z,56.80
2016-08-03T08:34:28.931Z,56.80
2016-08-03T08:35:27.690Z,56.80
2016-08-03T08:36:15.187Z,56.80
2016-08-03T08:37:18.472Z,56.80
2016-08-03T08:38:21.107Z,is
2016-08-03T08:39:21.717Z,56.80
2016-08-03T08:40:28.863Z,56.80
2016-08-03T08:41:28.186Z,56.70
2016-08-03T08:42:24.669Z,56.80
2016-08-03T08:43:19.367Z,56.80
2016-08-03T08:44:27.124Z,56.70
2016-08-03T08:45:15.528Z,is
2016-08-03T08:46:28.086Z,56.70
2016-08-03T08:47:17.594Z,56.70
2016-08-03T08:48:28.537Z,56.70
2016-08-03T08:49:25.813Z,56.70
2016-08-03T08:50:26.979Z,56.60
2016-08-03T08:51:12.198Z,56.50
2016-08-03T08:52:26.523Z,56.60
2016-08-03T08:53:25.948Z,56.60
2016-08-03T08:54:13.686Z,56.60
2016-08-03T08:55:31.047Z,56.50
2016-08-03T08:56:23.716Z,56.60
2016-08-03T08:57:25.459Z,56.50
2016-08-03T08:58:11.964Z,56.50
2016-08-03T08:59:13.556Z,56.40
2016-08-03T09:00:20.624Z,56.60
2016-08-03T09:01:26.183Z,56.40
2016-08-03T09:02:22.088Z,is
2016-08-03T09:03:19.429Z,56.50
2016-08-03T09:04:15.298Z,56.30
2016-08-03T09:05:22.238Z,56.40
2016-08-03T09:06:25.740Z,56.10
2016-08-03T09:07:21.774Z,56.40
2016-08-03T09:08:23.248Z,56.50
2016-08-03T09:09:27.932Z,56.40
2016-08-03T09:10:12.409Z,56.30
2016-08-03T09:11:12.285Z,56.40
2016-08-03T09:12:25.530Z,56.50
2016-08-03T09:13:25.836Z,56.40
2016-08-03T09:14:12.909Z,56.40
2016-08-03T09:15:23.236Z,56.40
2016-08-03T09:16:27.413Z,56.40
2016-08-03T09:17:20.953Z,56.40
2016-08-03T09:18:25.599Z,56.30
2016-08-03T09:19:12.916Z,56.30
2016-08-03T09:20:12.340Z,56.20
2016-08-03T09:21:26.906Z,56.30
2016-08-03T09:22:26.062Z,56.30
2016-08-03T09:23:19.988Z,56.30
2016-08-03T09:24:22.775Z,56.30
2016-08-03T09:25:14.310Z,56.30
2016-08-03T09:26:18.831Z,56.30
2016-08-03T09:27:25.597Z,56.30
2016-08-03T09:28:13.612Z,56.30
2016-08-03T09:29:14.621Z,56.30
2016-08-03T09:30:21.734Z,56.20
2016-08-03T09:31:18.446Z,56.20
2016-08-03T09:32:29.143Z,56.20
2016-08-03T09:33:27.615Z,56.20
2016-08-03T09:34:12.613Z,56.10
2016-08-03T09:35:15.561Z,is
2016-08-03T09:36:13.579Z,56.20
2016-08-03T09:37:14.737Z,56.20
2016-08-03T09:38:20.752Z,56.20
2016-08-03T09:39:28.146Z,56.20
2016-08-03T09:40:29.069Z,56.20
2016-08-03T09:41:15.316Z,56.10
2016-08-03T09:42:32.380Z,56.10
2016-08-03T09:43:27.333Z,56.70
2016-08-03T09:44:29.583Z,56.20
2016-08-03T09:45:19.542Z,56.20
2016-08-03T09:46:27.822Z,56.20
2016-08-03T09:47:23.384Z,56.10
2016-08-03T09:48:26.668Z,56.00
2016-08-03T09:49:22.576Z,56.10
2016-08-03T09:50:16.509Z,56.10
2016-08-03T09:51:20.820Z,56.20
2016-08-03T09:52:27.159Z,55.30
2016-08-03T09:53:28.466Z,56.00
2016-08-03T09:54:28.233Z,56.10
2016-08-03T09:55:14.468Z,is
2016-08-03T09:56:20.961Z,56.00
2016-08-03T09:57:26.087Z,56.00
2016-08-03T09:58:22.540Z,56.10
2016-08-03T09:59:26.440Z,56.00
2016-08-03T10:00:23.033Z,56.10
2016-08-03T10:01:22.114Z,56.00
2016-08-03T10:02:11.961Z,56.00
2016-08-03T10:03:20.564Z,56.00
2016-08-03T10:04:11.932Z,56.10
2016-08-03T10:05:20.431Z,56.00
2016-08-03T10:06:25.998Z,56.00
2016-08-03T10:07:21.554Z,is
2016-08-03T10:08:27.018Z,55.90
2016-08-03T10:09:32.743Z,55.90
2016-08-03T10:10:17.488Z,55.80
2016-08-03T10:11:18.691Z,56.00
2016-08-03T10:12:14.396Z,55.90
2016-08-03T10:13:36.095Z,55.90
2016-08-03T10:14:33.893Z,56.00
2016-08-03T10:15:32.982Z,55.80
2016-08-03T10:16:25.643Z,55.90
2016-08-03T10:17:21.470Z,55.80
2016-08-03T10:18:25.823Z,55.90
2016-08-03T10:19:21.040Z,55.80
2016-08-03T10:20:16.773Z,55.90
2016-08-03T10:21:24.175Z,55.90
2016-08-03T10:22:24.562Z,55.80
2016-08-03T10:23:20.509Z,55.80
2016-08-03T10:24:29.767Z,55.70
2016-08-03T10:25:15.777Z,55.80
2016-08-03T10:26:28.516Z,55.80
2016-08-03T10:27:26.680Z,55.80
2016-08-03T10:28:25.125Z,55.80
2016-08-03T10:29:27.176Z,55.70
2016-08-03T10:30:27.135Z,55.90
2016-08-03T10:31:11.932Z,55.70
2016-08-03T10:32:27.213Z,55.70
2016-08-03T10:33:27.327Z,55.80
2016-08-03T10:34:27.367Z,55.80
2016-08-03T10:35:26.098Z,55.80
2016-08-03T10:36:22.430Z,55.80
2016-08-03T10:37:27.850Z,55.80
2016-08-03T10:38:27.046Z,56.10
2016-08-03T10:39:20.635Z,56.00
2016-08-03T10:40:26.230Z,55.70
2016-08-03T10:41:26.961Z,55.80
2016-08-03T10:42:26.590Z,55.70
2016-08-03T10:43:13.641Z,55.70
2016-08-03T10:44:19.963Z,55.80
2016-08-03T10:45:21.339Z,55.70
2016-08-03T10:47:33.391Z,55.70
2016-08-03T10:48:20.456Z,55.80
2016-08-03T10:49:10.522Z,is
2016-08-03T10:50:12.810Z,55.70
2016-08-03T10:51:25.607Z,55.80
2016-08-03T10:52:23.163Z,55.80
2016-08-03T10:53:13.568Z,55.70
2016-08-03T10:54:27.230Z,55.70
2016-08-03T10:55:24.889Z,55.70
2016-08-03T10:56:12.819Z,55.80
2016-08-03T10:57:12.506Z,55.80
2016-08-03T10:58:27.861Z,55.70
2016-08-03T10:59:22.833Z,55.70
2016-08-03T11:00:20.266Z,55.60
2016-08-03T11:01:30.589Z,55.70
2016-08-03T11:02:29.418Z,55.60
2016-08-03T11:03:21.235Z,55.60
2016-08-03T11:04:13.101Z,55.70
2016-08-03T11:05:30.090Z,55.60
2016-08-03T11:06:27.087Z,55.70
2016-08-03T11:07:28.064Z,55.60
2016-08-03T11:08:14.001Z,55.70
2016-08-03T11:09:18.797Z,55.70
2016-08-03T11:10:27.346Z,55.60
2016-08-03T11:11:26.703Z,55.70
2016-08-03T11:12:21.857Z,55.60
2016-08-03T11:13:21.707Z,55.60
2016-08-03T11:14:21.570Z,is
2016-08-03T11:15:25.402Z,55.70
2016-08-03T11:16:13.046Z,55.60
2016-08-03T11:17:22.249Z,55.60
2016-08-03T11:18:27.705Z,55.70
2016-08-03T11:19:23.270Z,55.60
2016-08-03T11:20:13.810Z,55.60
2016-08-03T11:21:22.131Z,is
2016-08-03T11:22:21.873Z,55.50
2016-08-03T11:23:20.539Z,55.60
2016-08-03T11:24:28.009Z,55.70
2016-08-03T11:25:21.941Z,55.60
2016-08-03T11:26:21.679Z,55.70
2016-08-03T11:27:23.899Z,55.60
2016-08-03T11:28:22.699Z,55.70
2016-08-03T11:29:27.277Z,55.50
2016-08-03T11:30:20.569Z,55.50
2016-08-03T11:32:13.025Z,55.50
2016-08-03T11:33:27.356Z,55.60
2016-08-03T11:34:21.866Z,56.00
2016-08-03T11:35:26.441Z,55.60
2016-08-03T11:36:20.275Z,55.50
2016-08-03T11:37:14.481Z,55.50
2016-08-03T11:38:28.374Z,55.50
2016-08-03T11:39:17.963Z,55.60
2016-08-03T11:40:27.875Z,is
2016-08-03T11:41:27.220Z,55.50
2016-08-03T11:42:20.868Z,55.50
2016-08-03T11:43:22.401Z,55.50
2016-08-03T11:44:27.497Z,55.40
2016-08-03T11:45:21.147Z,55.50
2016-08-03T11:47:21.998Z,is
2016-08-03T11:48:12.991Z,55.40
2016-08-03T11:49:14.534Z,55.50
2016-08-03T11:50:12.782Z,55.40
2016-08-03T11:51:22.859Z,is
2016-08-03T11:52:16.479Z,55.40
2016-08-03T11:53:24.534Z,55.40
2016-08-03T11:54:22.478Z,55.40
2016-08-03T11:55:14.414Z,is
2016-08-03T11:56:28.278Z,55.30
2016-08-03T11:57:20.381Z,55.40
2016-08-03T11:58:27.262Z,55.30
2016-08-03T11:59:14.806Z,55.40
2016-08-03T12:00:24.883Z,55.30
2016-08-03T12:02:16.483Z,55.40
2016-08-03T12:03:15.928Z,55.30
2016-08-03T12:04:22.615Z,55.20
2016-08-03T12:05:21.447Z,is
2016-08-03T12:06:13.185Z,is
2016-08-03T12:07:25.582Z,55.30
2016-08-03T12:08:27.495Z,55.30
2016-08-03T12:09:13.496Z,55.20
2016-08-03T12:10:17.227Z,55.30
2016-08-03T12:11:15.288Z,55.30
2016-08-03T12:12:36.085Z,55.20
2016-08-03T12:13:25.354Z,55.30
2016-08-03T12:14:21.181Z,55.20
2016-08-03T12:15:11.955Z,55.20
2016-08-03T12:17:26.667Z,55.30
2016-08-03T12:18:28.351Z,55.20
2016-08-03T12:19:22.398Z,55.30
2016-08-03T12:20:26.159Z,55.20
2016-08-03T12:21:27.552Z,55.20
2016-08-03T12:22:27.528Z,55.20
2016-08-03T12:23:27.796Z,55.20
2016-08-03T12:24:27.190Z,55.20
2016-08-03T12:25:13.108Z,55.10
2016-08-03T12:26:28.342Z,55.20
2016-08-03T12:27:21.236Z,is
2016-08-03T12:28:21.018Z,55.20
2016-08-03T12:29:18.987Z,55.20
2016-08-03T12:30:14.236Z,55.10
2016-08-03T12:32:15.630Z,is
2016-08-03T12:33:20.019Z,55.10
2016-08-03T12:34:17.332Z,55.10
2016-08-03T12:35:30.719Z,55.00
2016-08-03T12:36:20.858Z,55.10
2016-08-03T12:37:29.193Z,55.20
2016-08-03T12:38:12.236Z,55.20
2016-08-03T12:39:14.222Z,55.10
2016-08-03T12:40:11.549Z,55.00
2016-08-03T12:41:26.899Z,55.10
2016-08-03T12:42:18.424Z,55.10
2016-08-03T12:43:25.701Z,55.10
2016-08-03T12:44:21.190Z,is
2016-08-03T12:45:19.019Z,55.10
2016-08-03T12:46:14.273Z,55.10
2016-08-03T12:47:17.417Z,55.10
2016-08-03T12:48:31.617Z,55.00
2016-08-03T12:49:25.048Z,55.00
2016-08-03T12:50:25.749Z,55.00
2016-08-03T12:51:26.400Z,55.00
2016-08-03T12:52:21.322Z,54.90
2016-08-03T12:53:22.521Z,54.90
2016-08-03T12:54:11.243Z,is
2016-08-03T12:55:17.103Z,54.90
2016-08-03T12:56:16.556Z,54.80
2016-08-03T12:57:17.416Z,54.80
2016-08-03T12:58:20.856Z,55.00
2016-08-03T12:59:17.731Z,54.80
2016-08-03T13:00:22.472Z,54.90
2016-08-03T13:01:20.907Z,is
2016-08-03T13:02:21.627Z,is
2016-08-03T13:03:27.768Z,54.90
2016-08-03T13:04:28.942Z,54.90
2016-08-03T13:05:11.868Z,54.80
2016-08-03T13:06:23.998Z,54.80
2016-08-03T13:07:27.159Z,54.80
2016-08-03T13:08:23.836Z,54.70
2016-08-03T13:09:27.434Z,54.70
2016-08-03T13:10:13.105Z,54.70
2016-08-03T13:11:26.284Z,54.80
2016-08-03T13:12:12.409Z,54.70